Time;durP1;ratioP1;P1;durP2;ratioP2;P2;SDS_P1;SDS_P2;PMS_P1;PMS_P2;Temp;Humidity;BMP_temperature;BMP_pressure;BME280_temperature;BME280_humidity;BME280_pressure;Samples;Min_cycle;Max_cycle;Signal;HPM_P1;HPM_P2
2021/03/29 00:01:58;;;;;;;;;;;9.00;74.20;;;;;;5017571;28;19906;-75
2021/03/29 00:04:23;;;;;;;;;;;8.90;74.20;;;;;;5019723;28;19920;-73
2021/03/29 00:06:49;;;;;;;;;;;8.80;74.20;;;;;;5016190;28;19951;-72
2021/03/29 00:09:17;;;;;;;;;;;8.80;74.30;;;;;;5012900;28;19921;-72
2021/03/29 00:11:43;;;;;;;;;;;8.90;74.40;;;;;;5014072;28;20438;-73
2021/03/29 00:14:08;;;;;;;;;;;9.00;74.40;;;;;;5013731;28;19905;-74
2021/03/29 00:16:34;;;;;;;;;;;8.80;74.30;;;;;;5016764;28;20374;-75
2021/03/29 00:19:00;;;;;;;;;;;8.80;74.30;;;;;;5032774;28;19913;-76
2021/03/29 00:21:25;;;;;;;;;;;8.70;74.30;;;;;;5015800;28;19894;-76
2021/03/29 00:23:51;;;;;;;;;;;8.80;74.40;;;;;;5015558;28;19917;-76
2021/03/29 00:26:17;;;;;;;;;;;8.60;74.30;;;;;;5032015;28;19909;-76
2021/03/29 00:28:43;;;;;;;;;;;8.70;74.40;;;;;;5031162;28;19913;-76
2021/03/29 00:31:10;;;;;;;;;;;8.70;74.40;;;;;;5031560;28;19966;-76
2021/03/29 00:33:36;;;;;;;;;;;8.70;74.40;;;;;;5033144;28;19906;-76
2021/03/29 00:36:02;;;;;;;;;;;8.70;74.50;;;;;;5031984;28;19905;-76
2021/03/29 00:38:28;;;;;;;;;;;8.70;74.50;;;;;;5033549;28;19914;-76
2021/03/29 00:40:55;;;;;;;;;;;8.70;75.10;;;;;;5033312;28;19907;-76
2021/03/29 00:43:33;;;;;;;;;;;8.60;74.40;;;;;;5015272;28;19913;-76
2021/03/29 00:45:59;;;;;;;;;;;8.70;74.40;;;;;;5033153;28;19905;-76
2021/03/29 00:48:26;;;;;;;;;;;8.60;74.40;;;;;;5033524;28;19920;-75
2021/03/29 00:50:54;;;;;;;;;;;8.60;74.50;;;;;;5032535;28;19913;-76
2021/03/29 00:53:21;;;;;;;;;;;8.60;74.50;;;;;;5014406;28;19948;-76
2021/03/29 00:55:47;;;;;;;;;;;8.70;74.50;;;;;;5033155;28;19896;-76
2021/03/29 00:58:14;;;;;;;;;;;8.70;74.40;;;;;;5031598;28;19957;-75
2021/03/29 01:00:42;;;;;;;;;;;8.70;74.40;;;;;;5032381;28;19932;-75
2021/03/29 01:03:10;;;;;;;;;;;8.70;74.30;;;;;;5014996;28;19897;-75
2021/03/29 01:05:36;;;;;;;;;;;8.80;74.30;;;;;;5031474;28;19928;-76
2021/03/29 01:08:01;;;;;;;;;;;8.90;74.20;;;;;;5033659;28;19917;-76
2021/03/29 01:10:27;;;;;;;;;;;8.80;73.90;;;;;;5016099;28;19905;-76
2021/03/29 01:12:56;;;;;;;;;;;8.80;74.00;;;;;;5030568;28;20517;-76
2021/03/29 01:15:22;;;;;;;;;;;8.80;74.00;;;;;;5005695;28;19968;-76
2021/03/29 01:17:49;;;;;;;;;;;8.90;73.90;;;;;;5032525;28;19889;-76
2021/03/29 01:20:19;;;;;;;;;;;9.00;74.50;;;;;;5031476;28;19905;-75
2021/03/29 01:22:45;;;;;;;;;;;9.00;73.70;;;;;;5031955;28;19910;-76
2021/03/29 01:25:19;;;;;;;;;;;9.00;73.60;;;;;;5033013;28;19890;-75
2021/03/29 01:27:48;;;;;;;;;;;9.00;73.50;;;;;;5031416;28;19924;-76
2021/03/29 01:30:14;;;;;;;;;;;9.10;73.50;;;;;;5032236;28;19922;-75
2021/03/29 01:32:41;;;;;;;;;;;9.00;73.50;;;;;;5015200;28;19917;-76
2021/03/29 01:35:17;;;;;;;;;;;9.10;73.50;;;;;;5032140;28;19969;-76
2021/03/29 01:37:44;;;;;;;;;;;9.20;73.50;;;;;;5033546;28;19894;-76
2021/03/29 01:40:10;;;;;;;;;;;9.20;73.40;;;;;;5014597;28;19906;-75
2021/03/29 01:42:36;;;;;;;;;;;9.20;73.30;;;;;;5031854;28;20348;-76
2021/03/29 01:45:03;;;;;;;;;;;9.30;73.40;;;;;;5029684;28;19905;-76
2021/03/29 01:47:28;;;;;;;;;;;9.40;73.40;;;;;;5029202;28;19917;-76
2021/03/29 01:50:02;;;;;;;;;;;9.40;73.10;;;;;;5028849;28;19906;-76
2021/03/29 01:52:28;;;;;;;;;;;9.50;72.90;;;;;;5011891;28;20299;-76
2021/03/29 01:54:53;;;;;;;;;;;9.60;72.90;;;;;;5028375;28;19906;-78
2021/03/29 01:57:19;;;;;;;;;;;9.60;72.90;;;;;;5028760;28;19921;-76
2021/03/29 01:59:45;;;;;;;;;;;9.60;72.90;;;;;;5026326;28;19906;-77
2021/03/29 02:02:11;;;;;;;;;;;9.60;73.50;;;;;;5005597;28;20456;-77
2021/03/29 02:04:36;;;;;;;;;;;9.70;72.90;;;;;;5024002;28;19924;-75
2021/03/29 02:07:02;;;;;;;;;;;9.60;72.70;;;;;;5023722;28;20020;-75
2021/03/29 02:09:28;;;;;;;;;;;9.70;72.70;;;;;;5024155;28;19909;-75
2021/03/29 02:11:54;;;;;;;;;;;9.70;72.60;;;;;;5026425;28;19917;-75
2021/03/29 02:14:20;;;;;;;;;;;9.70;72.70;;;;;;5009413;28;19959;-75
2021/03/29 02:16:47;;;;;;;;;;;9.70;72.90;;;;;;5027961;28;19905;-76
2021/03/29 02:19:12;;;;;;;;;;;9.70;72.90;;;;;;5029208;28;19889;-77
2021/03/29 02:21:39;;;;;;;;;;;9.60;72.90;;;;;;5032033;28;19936;-77
2021/03/29 02:24:05;;;;;;;;;;;9.70;73.00;;;;;;5031508;28;19889;-76
2021/03/29 02:26:34;;;;;;;;;;;9.70;73.00;;;;;;5032448;28;19917;-76
2021/03/29 02:29:00;;;;;;;;;;;9.60;73.00;;;;;;5011862;28;20496;-76
2021/03/29 02:31:27;;;;;;;;;;;9.60;73.10;;;;;;5013780;28;19905;-76
2021/03/29 02:33:53;;;;;;;;;;;9.60;73.20;;;;;;5030697;28;19920;-76
2021/03/29 02:36:20;;;;;;;;;;;9.50;73.30;;;;;;5031526;28;19912;-75
2021/03/29 02:38:46;;;;;;;;;;;9.50;73.30;;;;;;5032046;28;19905;-75
2021/03/29 02:41:11;;;;;;;;;;;9.50;73.40;;;;;;5033048;28;19920;-76
2021/03/29 02:43:37;;;;;;;;;;;9.50;73.50;;;;;;5034226;28;19906;-75
2021/03/29 02:46:06;;;;;;;;;;;9.50;73.50;;;;;;5001263;28;19928;-76
2021/03/29 02:48:35;;;;;;;;;;;9.40;73.50;;;;;;5031915;28;19944;-75
2021/03/29 02:51:02;;;;;;;;;;;9.40;73.50;;;;;;5032924;28;19964;-76
2021/03/29 02:53:30;;;;;;;;;;;9.30;73.50;;;;;;5017537;28;19905;-76
2021/03/29 02:55:55;;;;;;;;;;;9.40;73.60;;;;;;5034908;28;19908;-76
2021/03/29 02:58:22;;;;;;;;;;;9.30;73.70;;;;;;5033630;28;19906;-76
2021/03/29 03:00:48;;;;;;;;;;;9.30;73.70;;;;;;5034147;28;19893;-75
2021/03/29 03:03:14;;;;;;;;;;;9.20;73.70;;;;;;5033559;28;19960;-76
2021/03/29 03:05:43;;;;;;;;;;;9.20;73.80;;;;;;5033879;28;19906;-76
2021/03/29 03:08:09;;;;;;;;;;;9.20;73.80;;;;;;5034948;28;19913;-76
2021/03/29 03:10:35;;;;;;;;;;;9.20;73.90;;;;;;5017544;28;19909;-76
2021/03/29 03:13:05;;;;;;;;;;;9.20;74.00;;;;;;5027463;28;19905;-76
2021/03/29 03:15:31;;;;;;;;;;;9.20;74.10;;;;;;5008443;28;19906;-76
2021/03/29 03:17:58;;;;;;;;;;;9.10;74.10;;;;;;5026184;28;19905;-77
2021/03/29 03:20:23;;;;;;;;;;;9.10;74.20;;;;;;5027069;28;19905;-77
2021/03/29 03:22:50;;;;;;;;;;;9.00;74.10;;;;;;5025792;28;20000;-77
2021/03/29 03:25:17;;;;;;;;;;;9.10;74.50;;;;;;5015067;28;19917;-76
2021/03/29 03:27:44;;;;;;;;;;;9.00;74.20;;;;;;5017739;28;19913;-76
2021/03/29 03:30:14;;;;;;;;;;;8.90;74.30;;;;;;5034620;28;19909;-76
2021/03/29 03:32:40;;;;;;;;;;;8.90;74.30;;;;;;5034199;28;19905;-76
2021/03/29 03:35:06;;;;;;;;;;;9.00;74.40;;;;;;5034154;28;19947;-76
2021/03/29 03:37:31;;;;;;;;;;;8.90;74.40;;;;;;5034253;28;19948;-76
2021/03/29 03:39:57;;;;;;;;;;;8.90;74.40;;;;;;5034473;28;20004;-76
2021/03/29 03:42:23;;;;;;;;;;;9.00;74.50;;;;;;5035620;28;19912;-76
2021/03/29 03:44:48;;;;;;;;;;;8.90;74.50;;;;;;5034759;28;19913;-76
2021/03/29 03:47:14;;;;;;;;;;;8.90;74.50;;;;;;5034309;28;19913;-76
2021/03/29 03:49:40;;;;;;;;;;;8.80;74.50;;;;;;5033777;28;19916;-76
2021/03/29 03:52:07;;;;;;;;;;;8.90;74.50;;;;;;5032787;28;19905;-75
2021/03/29 03:54:33;;;;;;;;;;;8.80;74.50;;;;;;5033901;28;19913;-76
2021/03/29 03:56:58;;;;;;;;;;;8.80;74.40;;;;;;5032701;28;19905;-76
2021/03/29 03:59:24;;;;;;;;;;;9.00;74.50;;;;;;5033095;28;19921;-76
2021/03/29 04:02:06;;;;;;;;;;;8.90;74.40;;;;;;5033330;28;19911;-76
2021/03/29 04:04:32;;;;;;;;;;;8.90;74.40;;;;;;5034101;28;19914;-76
2021/03/29 04:06:58;;;;;;;;;;;8.90;74.40;;;;;;5034157;28;19988;-76
2021/03/29 04:09:34;;;;;;;;;;;8.90;74.40;;;;;;5034281;28;19897;-76
2021/03/29 04:12:05;;;;;;;;;;;8.90;74.30;;;;;;5034139;28;19957;-76
2021/03/29 04:14:31;;;;;;;;;;;8.90;74.30;;;;;;5034750;28;19905;-76
2021/03/29 04:16:56;;;;;;;;;;;8.90;74.30;;;;;;5032359;28;19913;-76
2021/03/29 04:19:22;;;;;;;;;;;8.90;74.30;;;;;;5033502;28;19905;-76
2021/03/29 04:21:47;;;;;;;;;;;8.90;74.30;;;;;;5034701;28;19901;-76
2021/03/29 04:24:13;;;;;;;;;;;8.90;74.30;;;;;;5034616;28;19905;-76
2021/03/29 04:26:41;;;;;;;;;;;8.90;74.30;;;;;;5034219;28;19904;-76
2021/03/29 04:29:07;;;;;;;;;;;8.90;74.30;;;;;;5034721;28;19916;-76
2021/03/29 04:31:33;;;;;;;;;;;8.90;74.40;;;;;;5017563;28;19905;-76
2021/03/29 04:33:58;;;;;;;;;;;8.90;74.30;;;;;;5034393;28;19889;-75
2021/03/29 04:36:24;;;;;;;;;;;8.90;74.30;;;;;;5033557;28;19889;-76
2021/03/29 04:38:49;;;;;;;;;;;9.00;74.40;;;;;;5033501;28;19910;-75
2021/03/29 04:41:15;;;;;;;;;;;8.90;74.20;;;;;;5033024;28;19890;-75
2021/03/29 04:43:40;;;;;;;;;;;8.90;74.20;;;;;;5033472;28;19905;-76
2021/03/29 04:46:06;;;;;;;;;;;8.90;74.20;;;;;;5015917;28;19933;-75
2021/03/29 04:48:32;;;;;;;;;;;8.90;74.10;;;;;;5034248;28;19931;-76
2021/03/29 04:50:57;;;;;;;;;;;8.90;74.20;;;;;;5034372;28;19896;-75
2021/03/29 04:53:23;;;;;;;;;;;8.90;74.20;;;;;;5033367;28;19913;-75
2021/03/29 04:55:48;;;;;;;;;;;8.90;74.30;;;;;;5033557;28;19984;-75
2021/03/29 04:58:14;;;;;;;;;;;8.90;74.40;;;;;;5034608;28;19909;-76
2021/03/29 05:00:39;;;;;;;;;;;8.90;74.40;;;;;;5016402;28;19940;-75
2021/03/29 05:03:05;;;;;;;;;;;8.90;74.50;;;;;;5032867;28;19905;-76
2021/03/29 05:05:31;;;;;;;;;;;9.00;74.60;;;;;;5033832;28;19914;-76
2021/03/29 05:07:56;;;;;;;;;;;8.80;74.50;;;;;;5033811;28;19914;-76
2021/03/29 05:10:22;;;;;;;;;;;8.90;74.50;;;;;;5034024;28;19932;-76
2021/03/29 05:12:47;;;;;;;;;;;8.90;74.50;;;;;;5033717;28;19913;-76
2021/03/29 05:15:13;;;;;;;;;;;8.80;74.40;;;;;;5033616;28;19912;-76
2021/03/29 05:17:39;;;;;;;;;;;8.90;74.40;;;;;;5033515;28;19909;-76
2021/03/29 05:20:06;;;;;;;;;;;8.90;74.50;;;;;;5034073;28;19976;-76
2021/03/29 05:22:32;;;;;;;;;;;8.80;74.50;;;;;;5034495;28;19909;-76
2021/03/29 05:24:57;;;;;;;;;;;8.80;74.60;;;;;;5015772;28;19905;-76
2021/03/29 05:27:23;;;;;;;;;;;8.80;74.70;;;;;;5034325;28;19914;-75
2021/03/29 05:29:48;;;;;;;;;;;8.80;74.80;;;;;;5016684;28;19993;-76
2021/03/29 05:32:16;;;;;;;;;;;8.70;74.90;;;;;;5033869;28;19906;-76
2021/03/29 05:34:42;;;;;;;;;;;8.70;74.80;;;;;;5033344;28;19926;-76
2021/03/29 05:37:08;;;;;;;;;;;8.70;74.80;;;;;;5016320;28;19932;-77
2021/03/29 05:39:33;;;;;;;;;;;8.80;74.80;;;;;;5034312;28;19913;-76
2021/03/29 05:41:59;;;;;;;;;;;8.70;74.70;;;;;;5033877;28;19973;-76
2021/03/29 05:44:25;;;;;;;;;;;8.80;74.70;;;;;;5017103;28;19918;-76
2021/03/29 05:46:51;;;;;;;;;;;8.90;74.70;;;;;;5033980;28;19905;-76
2021/03/29 05:49:17;;;;;;;;;;;8.90;74.60;;;;;;5036829;28;19896;-76
2021/03/29 05:51:42;;;;;;;;;;;8.90;74.60;;;;;;5037637;28;19889;-76
2021/03/29 05:54:08;;;;;;;;;;;8.90;74.50;;;;;;5018616;28;19928;-77
2021/03/29 05:56:40;;;;;;;;;;;9.00;74.40;;;;;;5034744;28;19905;-76
2021/03/29 05:59:17;;;;;;;;;;;9.00;74.30;;;;;;5035452;28;19914;-76
2021/03/29 06:01:44;;;;;;;;;;;9.10;74.30;;;;;;5035177;28;19926;-75
2021/03/29 06:04:10;;;;;;;;;;;9.20;74.30;;;;;;5036181;28;19906;-76
2021/03/29 06:06:36;;;;;;;;;;;9.10;74.80;;;;;;5036137;28;19931;-76
2021/03/29 06:09:02;;;;;;;;;;;9.20;74.10;;;;;;5036695;28;19960;-76
2021/03/29 06:11:30;;;;;;;;;;;9.20;74.10;;;;;;5009902;28;19922;-75
2021/03/29 06:14:09;;;;;;;;;;;9.40;74.00;;;;;;5031657;28;19929;-75
2021/03/29 06:16:50;;;;;;;;;;;9.40;73.90;;;;;;5033610;28;20295;-76
2021/03/29 06:19:31;;;;;;;;;;;9.40;73.70;;;;;;5032458;28;19980;-76
2021/03/29 06:22:15;;;;;;;;;;;9.50;73.70;;;;;;5033369;28;19929;-76
2021/03/29 06:25:02;;;;;;;;;;;9.40;73.70;;;;;;5033497;28;19905;-76
2021/03/29 06:27:29;;;;;;;;;;;9.40;73.80;;;;;;5033290;28;19917;-76
2021/03/29 06:30:11;;;;;;;;;;;9.50;73.90;;;;;;5024427;28;19910;-76
2021/03/29 06:32:37;;;;;;;;;;;9.50;73.80;;;;;;5016952;28;19905;-76
2021/03/29 06:35:19;;;;;;;;;;;9.50;73.80;;;;;;5019311;28;19979;-76
2021/03/29 06:37:45;;;;;;;;;;;9.60;74.50;;;;;;5001815;28;19905;-76
2021/03/29 06:40:11;;;;;;;;;;;9.50;73.80;;;;;;5001578;28;19907;-76
2021/03/29 06:42:36;;;;;;;;;;;9.50;73.80;;;;;;5020501;28;19955;-77
2021/03/29 06:45:10;;;;;;;;;;;9.60;73.90;;;;;;5017855;28;19914;-77
2021/03/29 06:47:35;;;;;;;;;;;9.50;73.80;;;;;;5020196;28;20430;-77
2021/03/29 06:50:01;;;;;;;;;;;9.50;73.80;;;;;;5018339;28;19945;-76
2021/03/29 06:52:28;;;;;;;;;;;9.60;73.90;;;;;;5019917;28;19905;-76
2021/03/29 06:54:55;;;;;;;;;;;9.60;73.90;;;;;;5018761;28;19917;-76
2021/03/29 06:57:30;;;;;;;;;;;9.60;73.90;;;;;;5015125;28;19920;-76
2021/03/29 06:59:56;;;;;;;;;;;9.70;73.90;;;;;;4996869;28;19964;-75
2021/03/29 07:02:35;;;;;;;;;;;9.60;73.80;;;;;;5018570;28;19909;-73
2021/03/29 07:05:00;;;;;;;;;;;9.70;73.90;;;;;;5011814;28;19905;-75
2021/03/29 07:07:26;;;;;;;;;;;9.70;73.80;;;;;;5014475;28;19924;-74
2021/03/29 07:09:53;;;;;;;;;;;9.80;73.90;;;;;;5014045;28;20048;-72
2021/03/29 07:12:19;;;;;;;;;;;9.80;73.80;;;;;;4995555;28;20268;-73
2021/03/29 07:14:45;;;;;;;;;;;9.90;73.80;;;;;;5020890;28;19977;-75
2021/03/29 07:17:11;;;;;;;;;;;9.90;74.30;;;;;;4995647;28;19918;-75
2021/03/29 07:19:39;;;;;;;;;;;10.00;73.90;;;;;;5017835;28;19960;-74
2021/03/29 07:22:05;;;;;;;;;;;10.00;73.70;;;;;;5013735;28;20410;-73
2021/03/29 07:24:30;;;;;;;;;;;10.10;73.60;;;;;;5013214;28;19910;-74
2021/03/29 07:26:57;;;;;;;;;;;10.10;73.90;;;;;;4995932;28;20004;-73
2021/03/29 07:29:25;;;;;;;;;;;10.10;73.60;;;;;;5013192;28;19995;-74
2021/03/29 07:31:52;;;;;;;;;;;10.10;73.60;;;;;;5012396;28;19909;-74
2021/03/29 07:34:39;;;;;;;;;;;10.10;73.60;;;;;;5013939;28;19922;-75
2021/03/29 07:37:24;;;;;;;;;;;10.20;73.60;;;;;;5013682;28;19905;-73
2021/03/29 07:39:49;;;;;;;;;;;10.20;73.40;;;;;;5012588;28;20261;-73
2021/03/29 07:42:35;;;;;;;;;;;10.40;73.40;;;;;;5012668;28;19917;-75
2021/03/29 07:45:02;;;;;;;;;;;10.30;73.20;;;;;;5002002;28;19914;-76
2021/03/29 07:47:45;;;;;;;;;;;10.60;73.20;;;;;;5001277;28;20271;-75
2021/03/29 07:50:15;;;;;;;;;;;10.60;73.10;;;;;;5005862;28;19960;-76
2021/03/29 07:52:42;;;;;;;;;;;10.80;73.00;;;;;;5022889;28;20057;-77
2021/03/29 07:55:21;;;;;;;;;;;10.80;72.80;;;;;;5003862;28;19893;-79
2021/03/29 07:58:05;;;;;;;;;;;10.80;72.70;;;;;;5000214;28;20917;-79
2021/03/29 08:00:48;;;;;;;;;;;11.00;72.50;;;;;;5021153;28;19932;-77
2021/03/29 08:03:33;;;;;;;;;;;11.20;72.50;;;;;;5024065;28;19960;-75
2021/03/29 08:06:00;;;;;;;;;;;11.30;72.40;;;;;;5008260;28;19905;-75
2021/03/29 08:08:41;;;;;;;;;;;11.30;72.20;;;;;;5020915;28;20339;-75
2021/03/29 08:11:13;;;;;;;;;;;11.40;72.10;;;;;;5003971;28;19910;-77
2021/03/29 08:13:40;;;;;;;;;;;11.60;72.10;;;;;;5025740;28;19894;-77
2021/03/29 08:16:08;;;;;;;;;;;11.60;71.90;;;;;;5002821;28;19908;-77
2021/03/29 08:18:48;;;;;;;;;;;11.70;71.90;;;;;;5023636;28;19922;-76
2021/03/29 08:21:29;;;;;;;;;;;11.90;71.80;;;;;;5021591;28;19976;-75
2021/03/29 08:23:59;;;;;;;;;;;12.10;71.80;;;;;;5020169;28;19905;-75
2021/03/29 08:26:36;;;;;;;;;;;12.00;71.70;;;;;;5003629;28;20384;-78
2021/03/29 08:29:10;;;;;;;;;;;12.10;71.60;;;;;;5025205;28;20364;-75
2021/03/29 08:31:49;;;;;;;;;;;12.10;71.50;;;;;;5025380;28;19920;-80
2021/03/29 08:34:18;;;;;;;;;;;12.30;72.10;;;;;;5004972;28;19929;-81
2021/03/29 08:36:44;;;;;;;;;;;12.40;71.40;;;;;;5026105;28;20294;-77
2021/03/29 08:39:10;;;;;;;;;;;12.40;71.40;;;;;;5018635;28;19955;-78
2021/03/29 08:41:36;;;;;;;;;;;12.40;71.20;;;;;;5002152;28;19906;-78
2021/03/29 08:44:02;;;;;;;;;;;12.50;71.10;;;;;;5019898;28;19905;-74
2021/03/29 08:46:31;;;;;;;;;;;12.60;71.10;;;;;;5018782;28;19914;-85
2021/03/29 08:48:58;;;;;;;;;;;12.70;71.10;;;;;;5016944;28;19913;-77
2021/03/29 08:51:26;;;;;;;;;;;12.70;70.80;;;;;;5001799;28;19913;-79
2021/03/29 08:54:05;;;;;;;;;;;12.70;70.70;;;;;;5016135;28;19956;-77
2021/03/29 08:56:39;;;;;;;;;;;12.80;70.60;;;;;;5018437;28;20000;-77
2021/03/29 08:59:05;;;;;;;;;;;13.00;70.60;;;;;;5019714;28;19905;-74
2021/03/29 09:01:30;;;;;;;;;;;13.00;70.50;;;;;;5020280;28;19890;-76
2021/03/29 09:04:00;;;;;;;;;;;13.00;70.30;;;;;;5019772;28;19906;-79
2021/03/29 09:06:26;;;;;;;;;;;13.20;70.30;;;;;;5024960;28;19929;-76
2021/03/29 09:08:57;;;;;;;;;;;13.20;70.10;;;;;;5027266;28;19924;-80
2021/03/29 09:11:23;;;;;;;;;;;13.30;69.80;;;;;;5008595;28;19944;-75
2021/03/29 09:13:52;;;;;;;;;;;13.40;69.70;;;;;;5020389;28;19996;-77
2021/03/29 09:16:23;;;;;;;;;;;13.50;69.50;;;;;;5025648;28;21230;-78
2021/03/29 09:18:49;;;;;;;;;;;13.60;69.30;;;;;;5026040;28;19920;-77
2021/03/29 09:21:22;;;;;;;;;;;13.70;69.30;;;;;;5013139;28;19906;-77
2021/03/29 09:23:48;;;;;;;;;;;13.70;69.10;;;;;;5028490;28;20000;-77
2021/03/29 09:26:22;;;;;;;;;;;13.90;69.10;;;;;;5028959;28;19913;-75
2021/03/29 09:28:50;;;;;;;;;;;14.00;68.90;;;;;;5021461;28;19917;-77
2021/03/29 09:31:19;;;;;;;;;;;14.00;68.30;;;;;;5028209;28;19905;-77
2021/03/29 09:33:46;;;;;;;;;;;14.10;68.10;;;;;;5023932;28;19975;-78
2021/03/29 09:36:12;;;;;;;;;;;14.10;67.90;;;;;;5016902;28;19916;-78
2021/03/29 09:38:42;;;;;;;;;;;14.10;68.00;;;;;;5007157;28;19905;-77
2021/03/29 09:41:15;;;;;;;;;;;14.20;67.80;;;;;;5022326;28;19980;-76
2021/03/29 09:43:42;;;;;;;;;;;14.30;67.70;;;;;;5021646;28;19956;-75
2021/03/29 09:46:08;;;;;;;;;;;14.40;68.10;;;;;;4997887;28;20363;-77
2021/03/29 09:48:34;;;;;;;;;;;14.50;67.30;;;;;;5000258;28;20012;-78
2021/03/29 09:50:59;;;;;;;;;;;14.50;67.20;;;;;;5020873;28;19998;-75
2021/03/29 09:53:33;;;;;;;;;;;14.70;67.20;;;;;;5002785;28;19913;-81
2021/03/29 09:56:02;;;;;;;;;;;14.80;67.10;;;;;;5020027;28;19912;-79
2021/03/29 09:58:31;;;;;;;;;;;14.80;66.80;;;;;;4997920;28;19905;-78
2021/03/29 10:00:58;;;;;;;;;;;15.00;66.50;;;;;;5014363;28;19913;-79
2021/03/29 10:03:24;;;;;;;;;;;15.00;66.40;;;;;;5016838;28;19913;-79
2021/03/29 10:05:51;;;;;;;;;;;15.00;65.80;;;;;;5000129;28;19914;-79
2021/03/29 10:08:25;;;;;;;;;;;15.00;65.60;;;;;;5002244;28;20344;-78
2021/03/29 10:14:06;;;;;;;;;;;15.20;65.60;;;;;;4989702;28;19954;-78
2021/03/29 10:16:31;;;;;;;;;;;15.20;65.20;;;;;;4945458;28;19914;-77
2021/03/29 10:19:02;;;;;;;;;;;15.30;65.20;;;;;;4981287;28;19968;-76
2021/03/29 10:21:27;;;;;;;;;;;15.30;65.00;;;;;;4989016;28;19914;-76
2021/03/29 10:24:12;;;;;;;;;;;15.40;64.80;;;;;;4984345;28;19906;-77
2021/03/29 10:26:38;;;;;;;;;;;15.40;64.80;;;;;;4982859;28;19910;-78
2021/03/29 10:29:05;;;;;;;;;;;15.50;64.50;;;;;;4993951;28;19942;-77
2021/03/29 10:31:31;;;;;;;;;;;15.50;63.80;;;;;;4993933;28;19926;-78
2021/03/29 10:33:57;;;;;;;;;;;15.60;63.70;;;;;;4993646;28;19930;-80
2021/03/29 10:36:24;;;;;;;;;;;15.50;63.90;;;;;;4954359;29;19895;-76
2021/03/29 10:38:51;;;;;;;;;;;15.50;63.30;;;;;;4939630;29;20373;-77
2021/03/29 10:41:17;;;;;;;;;;;15.60;63.40;;;;;;4953961;29;20035;-78
2021/03/29 10:43:42;;;;;;;;;;;15.70;63.10;;;;;;4963551;28;19918;-78
2021/03/29 10:46:08;;;;;;;;;;;15.70;62.90;;;;;;4979438;28;19922;-81
2021/03/29 10:48:34;;;;;;;;;;;15.90;62.90;;;;;;4994538;28;19921;-80
2021/03/29 10:51:00;;;;;;;;;;;15.90;62.60;;;;;;4996039;28;19926;-78
2021/03/29 10:53:26;;;;;;;;;;;16.00;62.50;;;;;;4991386;28;19897;-80
2021/03/29 10:55:52;;;;;;;;;;;16.10;61.60;;;;;;4978738;28;19906;-79
2021/03/29 10:58:19;;;;;;;;;;;16.10;61.70;;;;;;4995010;28;19937;-80
2021/03/29 11:00:46;;;;;;;;;;;16.20;61.90;;;;;;4977430;28;19914;-81
2021/03/29 11:03:12;;;;;;;;;;;16.40;61.60;;;;;;4968903;28;20046;-78
2021/03/29 11:05:39;;;;;;;;;;;16.40;61.20;;;;;;4986606;28;20387;-75
2021/03/29 11:08:04;;;;;;;;;;;16.50;61.20;;;;;;5011255;28;19925;-75
2021/03/29 11:10:30;;;;;;;;;;;16.70;61.20;;;;;;5027912;28;19928;-77
2021/03/29 11:12:55;;;;;;;;;;;16.70;60.90;;;;;;5029633;28;20340;-78
2021/03/29 11:15:21;;;;;;;;;;;16.80;60.20;;;;;;5000188;28;19963;-77
2021/03/29 11:17:47;;;;;;;;;;;16.90;60.30;;;;;;5002907;28;19906;-77
2021/03/29 11:20:13;;;;;;;;;;;16.90;60.10;;;;;;5019572;28;19909;-78
2021/03/29 11:22:38;;;;;;;;;;;16.90;60.10;;;;;;5018647;28;19905;-76
2021/03/29 11:25:05;;;;;;;;;;;17.00;60.20;;;;;;5013728;28;19960;-76
2021/03/29 11:27:31;;;;;;;;;;;17.10;60.00;;;;;;5011185;28;19917;-75
2021/03/29 11:29:57;;;;;;;;;;;17.20;59.90;;;;;;5015764;28;19913;-76
2021/03/29 11:32:22;;;;;;;;;;;17.30;60.00;;;;;;5013764;28;19909;-72
2021/03/29 11:34:48;;;;;;;;;;;17.40;60.10;;;;;;5018348;28;20313;-79
2021/03/29 11:37:16;;;;;;;;;;;17.60;59.90;;;;;;5004474;28;19950;-79
2021/03/29 11:39:42;;;;;;;;;;;17.50;59.70;;;;;;4974177;28;19918;-76
2021/03/29 11:42:07;;;;;;;;;;;17.60;59.60;;;;;;4973178;28;19914;-75
2021/03/29 11:44:33;;;;;;;;;;;17.60;59.40;;;;;;4960036;28;20006;-75
2021/03/29 11:46:59;;;;;;;;;;;17.70;59.40;;;;;;4972467;28;19924;-76
2021/03/29 11:49:24;;;;;;;;;;;17.80;59.30;;;;;;4975011;28;19914;-79
2021/03/29 11:51:50;;;;;;;;;;;17.90;59.20;;;;;;4962950;28;19925;-78
2021/03/29 11:54:15;;;;;;;;;;;17.90;58.80;;;;;;4973791;28;19923;-76
2021/03/29 11:56:41;;;;;;;;;;;18.10;58.90;;;;;;4977778;28;19906;-76
2021/03/29 11:59:07;;;;;;;;;;;18.00;58.80;;;;;;4975901;28;19914;-77
2021/03/29 12:01:41;;;;;;;;;;;18.30;58.80;;;;;;4977346;28;19977;-75
2021/03/29 12:04:12;;;;;;;;;;;18.30;58.40;;;;;;4985054;28;19914;-78
2021/03/29 12:06:45;;;;;;;;;;;18.40;58.50;;;;;;4984535;28;19917;-78
2021/03/29 12:09:20;;;;;;;;;;;18.30;57.80;;;;;;4963589;28;19918;-80
2021/03/29 12:11:58;;;;;;;;;;;18.30;58.00;;;;;;5024797;28;19928;-78
2021/03/29 12:14:25;;;;;;;;;;;18.40;58.00;;;;;;5060763;23;19936;-78
2021/03/29 12:16:52;;;;;;;;;;;18.50;58.00;;;;;;5005487;28;19921;-75
2021/03/29 12:19:18;;;;;;;;;;;18.70;57.90;;;;;;5004144;28;19917;-76
2021/03/29 12:21:47;;;;;;;;;;;18.80;57.50;;;;;;5001915;28;19910;-73
2021/03/29 12:24:14;;;;;;;;;;;18.80;57.60;;;;;;4992927;28;19906;-74
2021/03/29 12:26:41;;;;;;;;;;;18.90;57.50;;;;;;4993401;28;19961;-73
2021/03/29 12:29:08;;;;;;;;;;;18.70;56.90;;;;;;5000290;28;19948;-73
2021/03/29 12:31:35;;;;;;;;;;;18.70;57.20;;;;;;4994751;28;19916;-76
2021/03/29 12:34:01;;;;;;;;;;;18.90;57.20;;;;;;4999937;28;19906;-75
2021/03/29 12:36:30;;;;;;;;;;;19.00;56.80;;;;;;4994562;28;19906;-76
2021/03/29 12:39:02;;;;;;;;;;;18.90;56.60;;;;;;4964164;28;19921;-76
2021/03/29 12:41:30;;;;;;;;;;;18.90;56.60;;;;;;4996740;28;20407;-75
2021/03/29 12:44:01;;;;;;;;;;;19.00;56.30;;;;;;4997893;28;19914;-75
2021/03/29 12:46:27;;;;;;;;;;;19.20;56.30;;;;;;4992062;28;19918;-76
2021/03/29 12:48:53;;;;;;;;;;;19.20;56.20;;;;;;4992273;28;19917;-74
2021/03/29 12:51:18;;;;;;;;;;;19.20;55.90;;;;;;4994238;28;19988;-77
2021/03/29 12:53:45;;;;;;;;;;;19.20;55.40;;;;;;4993669;28;19906;-75
2021/03/29 12:56:10;;;;;;;;;;;19.30;55.70;;;;;;4996442;28;19979;-74
2021/03/29 12:58:36;;;;;;;;;;;19.30;55.40;;;;;;4993319;28;19906;-75
2021/03/29 13:01:11;;;;;;;;;;;19.30;55.30;;;;;;4997073;28;20008;-75
2021/03/29 13:03:43;;;;;;;;;;;19.50;55.10;;;;;;5003746;28;20000;-77
2021/03/29 13:06:15;;;;;;;;;;;19.50;54.80;;;;;;4990828;28;19920;-78
2021/03/29 13:08:42;;;;;;;;;;;19.40;54.80;;;;;;5014496;28;20352;-77
2021/03/29 13:13:57;;;;;;;;;;;19.60;55.30;;;;;;5020215;28;19905;-75
2021/03/29 13:16:25;;;;;;;;;;;19.70;54.40;;;;;;5014743;28;19924;-73
2021/03/29 13:18:51;;;;;;;;;;;19.60;54.40;;;;;;5011068;28;19909;-77
2021/03/29 13:21:22;;;;;;;;;;;19.70;54.50;;;;;;5012121;28;19906;-75
2021/03/29 13:23:48;;;;;;;;;;;19.80;54.60;;;;;;5013765;28;19944;-77
2021/03/29 13:26:17;;;;;;;;;;;19.80;54.60;;;;;;5016086;28;19905;-77
2021/03/29 13:28:43;;;;;;;;;;;19.70;54.10;;;;;;5006225;28;19921;-76
2021/03/29 13:31:09;;;;;;;;;;;19.70;54.40;;;;;;5000535;28;20022;-78
2021/03/29 13:33:34;;;;;;;;;;;19.70;54.40;;;;;;5012488;28;19913;-76
2021/03/29 13:36:00;;;;;;;;;;;19.80;54.50;;;;;;5012482;28;19905;-78
2021/03/29 13:38:25;;;;;;;;;;;19.90;54.50;;;;;;4976450;28;19905;-79
2021/03/29 13:40:51;;;;;;;;;;;20.00;54.20;;;;;;5011152;28;19905;-76
2021/03/29 13:43:19;;;;;;;;;;;20.00;53.90;;;;;;4993560;28;19912;-75
2021/03/29 13:45:45;;;;;;;;;;;19.90;54.10;;;;;;5011403;28;19914;-76
2021/03/29 13:48:11;;;;;;;;;;;19.90;54.10;;;;;;4992851;28;19917;-74
2021/03/29 13:50:38;;;;;;;;;;;19.90;53.60;;;;;;5011056;28;20320;-76
2021/03/29 13:53:04;;;;;;;;;;;19.90;53.70;;;;;;5011674;28;19905;-76
2021/03/29 13:55:30;;;;;;;;;;;19.90;53.90;;;;;;5011457;28;20263;-75
2021/03/29 13:57:56;;;;;;;;;;;19.90;53.90;;;;;;4993764;28;19906;-79
2021/03/29 14:00:23;;;;;;;;;;;19.90;53.50;;;;;;5011731;28;19913;-76
2021/03/29 14:02:50;;;;;;;;;;;19.90;53.40;;;;;;4999797;28;19999;-78
2021/03/29 14:05:17;;;;;;;;;;;20.00;53.70;;;;;;5009237;28;20083;-75
2021/03/29 14:07:43;;;;;;;;;;;19.90;53.40;;;;;;4995481;28;19917;-75
2021/03/29 14:10:18;;;;;;;;;;;19.90;53.50;;;;;;5014405;28;20374;-82
2021/03/29 14:12:44;;;;;;;;;;;19.90;53.50;;;;;;5001608;28;19909;-78
2021/03/29 14:15:10;;;;;;;;;;;19.90;53.10;;;;;;4997969;28;19905;-74
2021/03/29 14:17:36;;;;;;;;;;;19.80;52.90;;;;;;5013881;28;19928;-76
2021/03/29 14:20:03;;;;;;;;;;;19.70;52.90;;;;;;5014944;28;20351;-76
2021/03/29 14:22:31;;;;;;;;;;;19.70;52.70;;;;;;5014779;28;19905;-77
2021/03/29 14:24:57;;;;;;;;;;;19.60;52.70;;;;;;5014492;28;19913;-75
2021/03/29 14:27:23;;;;;;;;;;;19.60;52.70;;;;;;5013989;28;20015;-75
2021/03/29 14:29:49;;;;;;;;;;;19.60;52.80;;;;;;5014095;28;20332;-73
2021/03/29 14:32:17;;;;;;;;;;;19.70;52.70;;;;;;5019003;28;19952;-75
2021/03/29 14:34:51;;;;;;;;;;;19.70;52.60;;;;;;5015576;28;19914;-74